createdAt,value
2023-02-12T00:03:17.767Z,101501.25
2023-02-12T00:08:19.419Z,101502.19
2023-02-12T00:13:21.046Z,101499.63
2023-02-12T00:18:22.708Z,101506.34
2023-02-12T00:23:24.345Z,101511.41
2023-02-12T00:28:26.393Z,101519.84
2023-02-12T00:33:28.030Z,101511.16
2023-02-12T00:38:29.659Z,101518.91
2023-02-12T00:43:31.311Z,101521.84
2023-02-12T00:48:34.058Z,101520.16
2023-02-12T00:53:36.047Z,101522.19
2023-02-12T00:58:37.668Z,101524.66
2023-02-12T01:03:41.549Z,101534.03
2023-02-12T01:08:43.167Z,101537.34
2023-02-12T01:13:44.920Z,101544.41
2023-02-12T01:18:47.660Z,101545.84
2023-02-12T01:23:49.864Z,101541.53
2023-02-12T01:28:54.639Z,101549.00
2023-02-12T01:33:58.349Z,101548.19
2023-02-12T01:39:02.897Z,101539.16
2023-02-12T01:44:28.408Z,101542.69
2023-02-12T01:49:38.005Z,101548.97
2023-02-12T01:54:41.477Z,101548.88
2023-02-12T01:59:45.628Z,101545.44
2023-02-12T02:04:51.769Z,101547.22
2023-02-12T02:09:53.917Z,101549.06
2023-02-12T02:14:58.590Z,101548.78
2023-02-12T02:20:56.501Z,101535.03
2023-02-12T02:26:46.110Z,101529.41
2023-02-12T02:31:59.028Z,101535.94
2023-02-12T02:37:17.915Z,101536.97
2023-02-12T02:42:39.301Z,101540.06
2023-02-12T02:48:02.553Z,101550.69
2023-02-12T02:53:29.930Z,101546.72
2023-02-12T02:58:39.064Z,101548.88
2023-02-12T03:03:40.631Z,101551.19
2023-02-12T03:08:49.682Z,101553.31
2023-02-12T03:14:16.006Z,101572.97
2023-02-12T03:19:22.960Z,101578.31
2023-02-12T03:24:33.254Z,101574.28
2023-02-12T03:29:34.951Z,101583.97
2023-02-12T03:35:03.885Z,101588.53
2023-02-12T03:40:28.314Z,101600.31
2023-02-12T03:45:48.240Z,101606.81
2023-02-12T03:51:15.493Z,101615.38
2023-02-12T03:56:29.298Z,101628.19
2023-02-12T04:01:33.262Z,101633.31
2023-02-12T04:06:35.503Z,101639.69
2023-02-12T04:11:54.337Z,101643.94
2023-02-12T04:17:14.651Z,101649.19
2023-02-12T04:22:36.614Z,101645.66
2023-02-12T04:27:46.795Z,101648.78
2023-02-12T04:32:54.292Z,101657.41
2023-02-12T04:38:13.310Z,101650.25
2023-02-12T04:43:14.990Z,101652.78
2023-02-12T04:48:16.621Z,101658.81
2023-02-12T04:53:18.751Z,101656.16
2023-02-12T04:58:20.427Z,101652.78
2023-02-12T05:03:22.104Z,101659.09
2023-02-12T05:08:23.725Z,101662.16
2023-02-12T05:13:25.365Z,101668.34
2023-02-12T05:18:27.051Z,101668.44
2023-02-12T05:23:31.430Z,101671.97
2023-02-12T05:28:33.209Z,101678.16
2023-02-12T05:33:35.263Z,101669.88
2023-02-12T05:38:37.472Z,101671.09
2023-02-12T05:43:40.457Z,101677.09
2023-02-12T05:48:42.103Z,101682.28
2023-02-12T05:53:43.861Z,101682.53
2023-02-12T05:58:48.119Z,101687.25
2023-02-12T06:03:49.786Z,101691.91
2023-02-12T06:08:51.470Z,101695.44
2023-02-12T06:13:53.235Z,101698.56
2023-02-12T06:18:56.313Z,101704.47
2023-02-12T06:23:57.943Z,101715.84
2023-02-12T06:28:59.564Z,101724.50
2023-02-12T06:34:04.008Z,101728.50
2023-02-12T06:39:06.496Z,101733.19
2023-02-12T06:44:08.491Z,101739.09
2023-02-12T06:49:12.606Z,101757.06
2023-02-12T06:54:15.730Z,101759.59
2023-02-12T06:59:17.614Z,101760.84
2023-02-12T07:04:19.293Z,101769.94
2023-02-12T07:09:20.913Z,101771.34
2023-02-12T07:14:22.545Z,101776.09
2023-02-12T07:19:24.331Z,101777.34
2023-02-12T07:24:26.046Z,101784.34
2023-02-12T07:29:27.656Z,101787.84
2023-02-12T07:34:29.263Z,101784.63
2023-02-12T07:39:30.876Z,101789.63
2023-02-12T07:44:34.367Z,101789.03
2023-02-12T07:49:36.126Z,101798.97
2023-02-12T07:54:37.833Z,101795.50
2023-02-12T07:59:39.456Z,101800.41
2023-02-12T08:04:41.148Z,101804.34
2023-02-12T08:09:42.785Z,101801.38
2023-02-12T08:14:44.562Z,101813.31
2023-02-12T08:19:46.198Z,101806.34
2023-02-12T08:24:47.814Z,101816.06
2023-02-12T08:29:49.423Z,101821.59
2023-02-12T08:34:51.025Z,101822.44
2023-02-12T08:39:52.670Z,101818.41
2023-02-12T08:44:54.269Z,101831.41
2023-02-12T08:49:55.906Z,101838.44
2023-02-12T08:54:57.527Z,101834.75
2023-02-12T08:59:59.146Z,101845.59
2023-02-12T09:05:00.777Z,101851.66
2023-02-12T09:10:02.402Z,101863.06
2023-02-12T09:15:04.301Z,101862.66
2023-02-12T09:20:06.585Z,101868.41
2023-02-12T09:25:08.470Z,101868.88
2023-02-12T09:30:10.714Z,101875.09
2023-02-12T09:35:12.893Z,101876.16
2023-02-12T09:40:26.980Z,101877.00
2023-02-12T09:45:38.234Z,101889.81
2023-02-12T09:50:54.232Z,101890.50
2023-02-12T09:55:56.499Z,101896.22
2023-02-12T10:00:58.936Z,101885.47
2023-02-12T10:06:05.054Z,101902.63
2023-02-12T10:11:24.638Z,101898.66
2023-02-12T10:16:37.292Z,101892.94
2023-02-12T10:21:46.048Z,101898.78
2023-02-12T10:26:50.097Z,101897.25
2023-02-12T10:32:02.153Z,101903.28
2023-02-12T10:37:28.182Z,101897.63
2023-02-12T10:42:51.669Z,101893.31
2023-02-12T10:48:04.081Z,101890.19
2023-02-12T10:53:06.109Z,101900.06
2023-02-12T10:58:19.839Z,101898.88
2023-02-12T11:03:23.823Z,101892.16
2023-02-12T11:08:30.627Z,101888.66
2023-02-12T11:13:32.538Z,101886.66
2023-02-12T11:18:36.666Z,101882.34
2023-02-12T11:23:43.709Z,101875.75
2023-02-12T11:28:59.084Z,101877.66
2023-02-12T11:34:12.949Z,101875.91
2023-02-12T11:39:32.617Z,101873.06
2023-02-12T11:44:37.242Z,101880.56
2023-02-12T11:49:48.683Z,101881.09
2023-02-12T11:54:53.394Z,101872.31
2023-02-12T11:59:56.509Z,101871.19
2023-02-12T12:05:08.181Z,101867.59
2023-02-12T12:10:18.834Z,101866.66
2023-02-12T12:15:45.005Z,101871.44
2023-02-12T12:20:55.432Z,101877.22
2023-02-12T12:26:07.201Z,101864.22
2023-02-12T12:31:17.448Z,101866.56
2023-02-12T12:36:54.438Z,101862.25
2023-02-12T12:42:30.022Z,101858.53
2023-02-12T12:48:09.871Z,101850.84
2023-02-12T12:53:26.712Z,101849.13
2023-02-12T12:59:03.664Z,101846.44
2023-02-12T13:04:05.673Z,101843.81
2023-02-12T13:09:20.180Z,101848.88
2023-02-12T13:14:41.721Z,101841.75
2023-02-12T13:20:09.850Z,101839.94
2023-02-12T13:25:56.409Z,101856.59
2023-02-12T13:31:01.010Z,101848.88
2023-02-12T13:36:06.269Z,101848.22
2023-02-12T13:41:10.520Z,101842.59
2023-02-12T13:47:02.631Z,101839.75
2023-02-12T13:52:28.089Z,101842.53
2023-02-12T13:57:29.757Z,101843.41
2023-02-12T14:02:34.612Z,101848.47
2023-02-12T14:07:49.419Z,101844.25
2023-02-12T14:12:53.144Z,101848.13
2023-02-12T14:17:54.780Z,101846.69
2023-02-12T14:23:02.854Z,101842.16
2023-02-12T14:28:14.195Z,101844.19
2023-02-12T14:33:26.895Z,101843.91
2023-02-12T14:38:30.355Z,101846.56
2023-02-12T14:43:57.842Z,101843.75
2023-02-12T14:49:06.134Z,101849.84
2023-02-12T14:54:18.229Z,101863.13
2023-02-12T14:59:24.304Z,101861.44
2023-02-12T15:04:28.849Z,101859.75
2023-02-12T15:09:36.427Z,101859.22
2023-02-12T15:14:45.814Z,101855.78
2023-02-12T15:19:59.959Z,101853.16
2023-02-12T15:25:28.011Z,101857.84
2023-02-12T15:30:33.958Z,101854.78
2023-02-12T15:35:44.225Z,101859.94
2023-02-12T15:40:58.333Z,101861.19
2023-02-12T15:45:59.966Z,101859.81
2023-02-12T15:51:38.647Z,101863.31
2023-02-12T15:56:41.686Z,101856.75
2023-02-12T16:01:53.700Z,101858.53
2023-02-12T16:06:56.017Z,101861.94
2023-02-12T16:12:00.652Z,101863.69
2023-02-12T16:17:02.457Z,101875.94
2023-02-12T16:22:04.072Z,101862.66
2023-02-12T16:27:18.703Z,101873.69
2023-02-12T16:32:44.173Z,101886.38
2023-02-12T16:37:49.239Z,101880.41
2023-02-12T16:42:50.853Z,101896.94
2023-02-12T16:48:12.692Z,101900.84
2023-02-12T16:53:27.386Z,101896.84
2023-02-12T16:58:29.091Z,101900.19
2023-02-12T17:03:31.254Z,101902.00
2023-02-12T17:08:33.047Z,101905.84
2023-02-12T17:13:35.642Z,101906.78
2023-02-12T17:18:38.491Z,101911.16
2023-02-12T17:23:41.734Z,101912.44
2023-02-12T17:28:43.395Z,101916.81
2023-02-12T17:33:45.006Z,101921.78
2023-02-12T17:38:46.642Z,101917.09
2023-02-12T17:43:48.316Z,101921.00
2023-02-12T17:48:50.067Z,101944.22
2023-02-12T17:53:51.945Z,101936.19
2023-02-12T17:58:53.905Z,101936.50
2023-02-12T18:03:58.351Z,101944.03
2023-02-12T18:09:01.844Z,101949.19
2023-02-12T18:14:03.751Z,101946.81
2023-02-12T18:19:05.914Z,101945.06
2023-02-12T18:24:08.483Z,101939.81
2023-02-12T18:29:10.210Z,101948.28
2023-02-12T18:34:11.826Z,101954.44
2023-02-12T18:39:13.448Z,101953.56
2023-02-12T18:44:15.581Z,101946.47
2023-02-12T18:49:17.241Z,101949.19
2023-02-12T18:54:18.879Z,101950.00
2023-02-12T18:59:21.877Z,101941.50
2023-02-12T19:04:24.380Z,101941.91
2023-02-12T19:09:27.042Z,101938.63
2023-02-12T19:14:28.995Z,101930.03
2023-02-12T19:19:30.689Z,101934.78
2023-02-12T19:24:45.636Z,101925.53
2023-02-12T19:29:48.101Z,101930.75
2023-02-12T19:34:49.700Z,101928.00
2023-02-12T19:39:51.314Z,101913.47
2023-02-12T19:44:53.003Z,101916.69
2023-02-12T19:49:54.921Z,101917.06
2023-02-12T19:54:56.621Z,101916.25
2023-02-12T19:59:58.224Z,101916.72
2023-02-12T20:04:59.834Z,101919.41
2023-02-12T20:10:01.439Z,101910.94
2023-02-12T20:15:04.246Z,101905.63
2023-02-12T20:20:06.608Z,101912.00
2023-02-12T20:25:08.397Z,101912.88
2023-02-12T20:30:10.402Z,101905.03
2023-02-12T20:35:13.573Z,101914.69
2023-02-12T20:40:15.198Z,101911.09
2023-02-12T20:45:16.867Z,101923.19
2023-02-12T20:50:18.660Z,101926.75
2023-02-12T20:55:20.967Z,101929.13
2023-02-12T21:00:22.762Z,101929.63
2023-02-12T21:05:24.363Z,101923.19
2023-02-12T21:10:27.156Z,101922.34
2023-02-12T21:15:29.306Z,101920.81
2023-02-12T21:20:30.913Z,101913.75
2023-02-12T21:25:32.506Z,101916.78
2023-02-12T21:30:34.118Z,101912.66
2023-02-12T21:35:36.468Z,101910.75
2023-02-12T21:40:38.104Z,101913.69
2023-02-12T21:45:49.424Z,101919.81
2023-02-12T21:50:51.064Z,101915.75
2023-02-12T21:55:52.691Z,101912.81
2023-02-12T22:00:54.413Z,101909.56
2023-02-12T22:06:00.793Z,101918.22
2023-02-12T22:11:04.021Z,101904.94
2023-02-12T22:16:15.782Z,101906.81
2023-02-12T22:21:18.354Z,101906.28
2023-02-12T22:26:23.637Z,101918.69
2023-02-12T22:31:29.301Z,101922.53
2023-02-12T22:36:33.530Z,101922.47
2023-02-12T22:41:35.413Z,101926.94
2023-02-12T22:46:37.024Z,101928.47
2023-02-12T22:51:39.733Z,101928.91
2023-02-12T22:56:42.341Z,101928.38
2023-02-12T23:01:43.988Z,101919.75
2023-02-12T23:06:46.286Z,101927.00
2023-02-12T23:11:48.648Z,101920.19
2023-02-12T23:16:50.383Z,101919.00
2023-02-12T23:21:52.010Z,101918.75
2023-02-12T23:26:53.925Z,101909.78
2023-02-12T23:31:55.612Z,101910.56
2023-02-12T23:36:57.230Z,101915.38
2023-02-12T23:41:58.899Z,101905.75
2023-02-12T23:47:02.099Z,101906.66
2023-02-12T23:52:03.829Z,101910.16
2023-02-12T23:57:05.689Z,101908.75
